sensor_id;sensor_type;location;lat;lon;timestamp;P1;durP1;ratioP1;P2;durP2;ratioP2
16033;SDS011;8121;51.418;6.998;2023-06-22T00:00:58;4.27;;;3.27;;
16033;SDS011;8121;51.418;6.998;2023-06-22T00:06:00;3.33;;;2.60;;
16033;SDS011;8121;51.418;6.998;2023-06-22T00:11:02;11.03;;;3.80;;
16033;SDS011;8121;51.418;6.998;2023-06-22T00:16:05;4.10;;;3.53;;
16033;SDS011;8121;51.418;6.998;2023-06-22T00:21:06;9.90;;;3.60;;
16033;SDS011;8121;51.418;6.998;2023-06-22T00:26:08;8.67;;;3.97;;
16033;SDS011;8121;51.418;6.998;2023-06-22T00:31:11;2.97;;;2.77;;
16033;SDS011;8121;51.418;6.998;2023-06-22T00:36:13;44.70;;;4.03;;
16033;SDS011;8121;51.418;6.998;2023-06-22T00:41:17;8.13;;;3.90;;
16033;SDS011;8121;51.418;6.998;2023-06-22T00:46:20;5.10;;;3.90;;
16033;SDS011;8121;51.418;6.998;2023-06-22T00:51:22;6.80;;;3.97;;
16033;SDS011;8121;51.418;6.998;2023-06-22T00:56:24;3.77;;;3.20;;
16033;SDS011;8121;51.418;6.998;2023-06-22T01:01:27;7.70;;;5.07;;
16033;SDS011;8121;51.418;6.998;2023-06-22T01:06:29;9.53;;;5.30;;
16033;SDS011;8121;51.418;6.998;2023-06-22T01:11:39;10.67;;;5.80;;
16033;SDS011;8121;51.418;6.998;2023-06-22T01:16:46;10.30;;;6.90;;
16033;SDS011;8121;51.418;6.998;2023-06-22T01:21:49;10.97;;;6.87;;
16033;SDS011;8121;51.418;6.998;2023-06-22T01:26:54;11.33;;;6.67;;
16033;SDS011;8121;51.418;6.998;2023-06-22T01:32:01;7.30;;;6.27;;
16033;SDS011;8121;51.418;6.998;2023-06-22T01:37:04;10.43;;;6.53;;
16033;SDS011;8121;51.418;6.998;2023-06-22T01:42:06;8.97;;;6.50;;
16033;SDS011;8121;51.418;6.998;2023-06-22T01:47:09;9.33;;;5.67;;
16033;SDS011;8121;51.418;6.998;2023-06-22T01:52:11;20.43;;;6.80;;
16033;SDS011;8121;51.418;6.998;2023-06-22T01:57:12;15.80;;;6.50;;
16033;SDS011;8121;51.418;6.998;2023-06-22T02:02:16;8.93;;;4.97;;
16033;SDS011;8121;51.418;6.998;2023-06-22T02:07:18;8.13;;;5.50;;
16033;SDS011;8121;51.418;6.998;2023-06-22T02:12:22;12.00;;;7.30;;
16033;SDS011;8121;51.418;6.998;2023-06-22T02:17:26;5.13;;;4.57;;
16033;SDS011;8121;51.418;6.998;2023-06-22T02:22:27;12.80;;;6.37;;
16033;SDS011;8121;51.418;6.998;2023-06-22T02:27:29;9.70;;;6.03;;
16033;SDS011;8121;51.418;6.998;2023-06-22T02:32:32;8.07;;;6.60;;
16033;SDS011;8121;51.418;6.998;2023-06-22T02:37:35;8.20;;;6.27;;
16033;SDS011;8121;51.418;6.998;2023-06-22T02:42:39;13.10;;;6.83;;
16033;SDS011;8121;51.418;6.998;2023-06-22T02:47:42;8.03;;;5.97;;
16033;SDS011;8121;51.418;6.998;2023-06-22T02:52:43;8.37;;;6.70;;
16033;SDS011;8121;51.418;6.998;2023-06-22T02:57:45;12.83;;;6.70;;
16033;SDS011;8121;51.418;6.998;2023-06-22T03:02:49;7.77;;;6.97;;
16033;SDS011;8121;51.418;6.998;2023-06-22T03:07:50;23.53;;;9.40;;
16033;SDS011;8121;51.418;6.998;2023-06-22T03:12:52;17.37;;;8.97;;
16033;SDS011;8121;51.418;6.998;2023-06-22T03:17:55;8.03;;;6.80;;
16033;SDS011;8121;51.418;6.998;2023-06-22T03:22:56;7.60;;;6.50;;
16033;SDS011;8121;51.418;6.998;2023-06-22T03:27:57;15.23;;;9.90;;
16033;SDS011;8121;51.418;6.998;2023-06-22T03:33:01;8.43;;;6.83;;
16033;SDS011;8121;51.418;6.998;2023-06-22T03:38:03;15.07;;;8.80;;
16033;SDS011;8121;51.418;6.998;2023-06-22T03:43:04;24.83;;;10.07;;
16033;SDS011;8121;51.418;6.998;2023-06-22T03:48:07;15.00;;;9.77;;
16033;SDS011;8121;51.418;6.998;2023-06-22T03:53:09;13.67;;;9.13;;
16033;SDS011;8121;51.418;6.998;2023-06-22T03:58:10;12.27;;;7.67;;
16033;SDS011;8121;51.418;6.998;2023-06-22T04:03:13;18.00;;;10.07;;
16033;SDS011;8121;51.418;6.998;2023-06-22T04:08:15;15.67;;;10.13;;
16033;SDS011;8121;51.418;6.998;2023-06-22T04:13:16;17.50;;;11.30;;
16033;SDS011;8121;51.418;6.998;2023-06-22T04:18:19;14.83;;;9.30;;
16033;SDS011;8121;51.418;6.998;2023-06-22T04:23:21;14.00;;;10.80;;
16033;SDS011;8121;51.418;6.998;2023-06-22T04:28:22;11.43;;;9.10;;
16033;SDS011;8121;51.418;6.998;2023-06-22T04:33:25;14.77;;;10.50;;
16033;SDS011;8121;51.418;6.998;2023-06-22T04:38:26;15.77;;;9.80;;
16033;SDS011;8121;51.418;6.998;2023-06-22T04:43:28;14.33;;;9.53;;
16033;SDS011;8121;51.418;6.998;2023-06-22T04:48:32;18.17;;;11.57;;
16033;SDS011;8121;51.418;6.998;2023-06-22T04:53:33;16.03;;;11.13;;
16033;SDS011;8121;51.418;6.998;2023-06-22T04:58:35;18.13;;;10.93;;
16033;SDS011;8121;51.418;6.998;2023-06-22T05:03:38;24.37;;;13.17;;
16033;SDS011;8121;51.418;6.998;2023-06-22T05:08:41;30.67;;;12.40;;
16033;SDS011;8121;51.418;6.998;2023-06-22T05:13:45;15.60;;;11.63;;
16033;SDS011;8121;51.418;6.998;2023-06-22T05:18:54;16.20;;;11.50;;
16033;SDS011;8121;51.418;6.998;2023-06-22T05:23:56;19.87;;;14.30;;
16033;SDS011;8121;51.418;6.998;2023-06-22T05:29:00;20.07;;;12.70;;
16033;SDS011;8121;51.418;6.998;2023-06-22T05:34:04;15.23;;;10.30;;
16033;SDS011;8121;51.418;6.998;2023-06-22T05:39:11;9.57;;;7.13;;
16033;SDS011;8121;51.418;6.998;2023-06-22T05:44:13;6.60;;;5.40;;
16033;SDS011;8121;51.418;6.998;2023-06-22T05:49:16;6.20;;;5.60;;
16033;SDS011;8121;51.418;6.998;2023-06-22T05:54:17;11.77;;;8.90;;
16033;SDS011;8121;51.418;6.998;2023-06-22T05:59:19;4.53;;;4.13;;
16033;SDS011;8121;51.418;6.998;2023-06-22T06:04:22;17.77;;;10.60;;
16033;SDS011;8121;51.418;6.998;2023-06-22T06:09:24;19.70;;;11.53;;
16033;SDS011;8121;51.418;6.998;2023-06-22T06:14:25;18.37;;;11.60;;
16033;SDS011;8121;51.418;6.998;2023-06-22T06:19:28;30.73;;;14.27;;
16033;SDS011;8121;51.418;6.998;2023-06-22T06:24:29;8.13;;;6.37;;
16033;SDS011;8121;51.418;6.998;2023-06-22T06:29:31;16.63;;;11.20;;
16033;SDS011;8121;51.418;6.998;2023-06-22T06:34:34;18.70;;;12.90;;
16033;SDS011;8121;51.418;6.998;2023-06-22T06:39:35;7.20;;;5.33;;
16033;SDS011;8121;51.418;6.998;2023-06-22T06:44:37;13.10;;;9.47;;
16033;SDS011;8121;51.418;6.998;2023-06-22T06:49:40;9.60;;;7.07;;
16033;SDS011;8121;51.418;6.998;2023-06-22T06:54:41;17.73;;;10.43;;
16033;SDS011;8121;51.418;6.998;2023-06-22T06:59:43;10.70;;;8.13;;
16033;SDS011;8121;51.418;6.998;2023-06-22T07:04:45;20.90;;;12.23;;
16033;SDS011;8121;51.418;6.998;2023-06-22T07:09:47;21.60;;;12.00;;
16033;SDS011;8121;51.418;6.998;2023-06-22T07:14:48;6.43;;;5.80;;
16033;SDS011;8121;51.418;6.998;2023-06-22T07:19:51;21.73;;;10.20;;
16033;SDS011;8121;51.418;6.998;2023-06-22T07:24:53;6.00;;;5.40;;
16033;SDS011;8121;51.418;6.998;2023-06-22T07:29:54;6.03;;;5.10;;
16033;SDS011;8121;51.418;6.998;2023-06-22T07:34:57;14.03;;;7.03;;
16033;SDS011;8121;51.418;6.998;2023-06-22T07:39:59;8.83;;;5.43;;
16033;SDS011;8121;51.418;6.998;2023-06-22T07:45:00;15.30;;;11.30;;
16033;SDS011;8121;51.418;6.998;2023-06-22T07:50:05;7.17;;;5.30;;
16033;SDS011;8121;51.418;6.998;2023-06-22T07:55:07;6.80;;;6.10;;
16033;SDS011;8121;51.418;6.998;2023-06-22T08:00:09;16.50;;;11.07;;
16033;SDS011;8121;51.418;6.998;2023-06-22T08:05:15;19.93;;;12.17;;
16033;SDS011;8121;51.418;6.998;2023-06-22T08:10:17;20.87;;;14.73;;
16033;SDS011;8121;51.418;6.998;2023-06-22T08:15:19;9.37;;;7.97;;
16033;SDS011;8121;51.418;6.998;2023-06-22T08:20:23;8.00;;;6.80;;
16033;SDS011;8121;51.418;6.998;2023-06-22T08:25:24;22.80;;;12.87;;
16033;SDS011;8121;51.418;6.998;2023-06-22T08:30:26;16.27;;;8.07;;
16033;SDS011;8121;51.418;6.998;2023-06-22T08:35:29;15.40;;;10.70;;
16033;SDS011;8121;51.418;6.998;2023-06-22T08:40:31;10.13;;;7.33;;
16033;SDS011;8121;51.418;6.998;2023-06-22T08:45:32;20.23;;;12.53;;
16033;SDS011;8121;51.418;6.998;2023-06-22T08:50:35;9.73;;;7.40;;
16033;SDS011;8121;51.418;6.998;2023-06-22T08:55:36;17.63;;;12.33;;
16033;SDS011;8121;51.418;6.998;2023-06-22T09:00:38;20.70;;;14.47;;
16033;SDS011;8121;51.418;6.998;2023-06-22T09:05:41;8.33;;;7.00;;
16033;SDS011;8121;51.418;6.998;2023-06-22T09:10:42;11.23;;;6.90;;
16033;SDS011;8121;51.418;6.998;2023-06-22T09:15:44;15.03;;;11.43;;
16033;SDS011;8121;51.418;6.998;2023-06-22T09:20:46;10.50;;;8.37;;
16033;SDS011;8121;51.418;6.998;2023-06-22T09:25:48;24.30;;;12.87;;
16033;SDS011;8121;51.418;6.998;2023-06-22T09:30:50;20.03;;;13.20;;
16033;SDS011;8121;51.418;6.998;2023-06-22T09:35:53;21.73;;;14.93;;
16033;SDS011;8121;51.418;6.998;2023-06-22T09:40:54;24.63;;;14.13;;
16033;SDS011;8121;51.418;6.998;2023-06-22T09:45:56;14.90;;;12.77;;
16033;SDS011;8121;51.418;6.998;2023-06-22T09:50:59;13.90;;;10.93;;
16033;SDS011;8121;51.418;6.998;2023-06-22T09:56:00;17.47;;;12.50;;
16033;SDS011;8121;51.418;6.998;2023-06-22T10:01:05;6.97;;;6.27;;
16033;SDS011;8121;51.418;6.998;2023-06-22T10:06:08;19.10;;;13.53;;
16033;SDS011;8121;51.418;6.998;2023-06-22T10:11:09;17.13;;;11.43;;
16033;SDS011;8121;51.418;6.998;2023-06-22T10:16:11;15.03;;;12.20;;
16033;SDS011;8121;51.418;6.998;2023-06-22T10:21:14;17.80;;;12.10;;
16033;SDS011;8121;51.418;6.998;2023-06-22T10:26:16;7.70;;;6.90;;
16033;SDS011;8121;51.418;6.998;2023-06-22T10:31:17;18.73;;;13.30;;
16033;SDS011;8121;51.418;6.998;2023-06-22T10:36:20;14.00;;;11.50;;
16033;SDS011;8121;51.418;6.998;2023-06-22T10:41:22;21.00;;;14.97;;
16033;SDS011;8121;51.418;6.998;2023-06-22T10:46:24;10.90;;;8.53;;
16033;SDS011;8121;51.418;6.998;2023-06-22T10:51:27;16.20;;;13.17;;
16033;SDS011;8121;51.418;6.998;2023-06-22T10:56:28;8.03;;;6.53;;
16033;SDS011;8121;51.418;6.998;2023-06-22T11:01:30;7.03;;;6.33;;
16033;SDS011;8121;51.418;6.998;2023-06-22T11:06:34;14.33;;;10.30;;
16033;SDS011;8121;51.418;6.998;2023-06-22T11:11:36;8.63;;;7.00;;
16033;SDS011;8121;51.418;6.998;2023-06-22T11:16:37;8.07;;;6.70;;
16033;SDS011;8121;51.418;6.998;2023-06-22T11:21:40;6.80;;;5.90;;
16033;SDS011;8121;51.418;6.998;2023-06-22T11:26:42;6.70;;;6.00;;
16033;SDS011;8121;51.418;6.998;2023-06-22T11:31:43;6.33;;;5.70;;
16033;SDS011;8121;51.418;6.998;2023-06-22T11:36:46;8.27;;;7.43;;
16033;SDS011;8121;51.418;6.998;2023-06-22T11:41:48;8.33;;;6.43;;
16033;SDS011;8121;51.418;6.998;2023-06-22T11:46:49;12.40;;;6.63;;
16033;SDS011;8121;51.418;6.998;2023-06-22T11:51:52;7.53;;;6.20;;
16033;SDS011;8121;51.418;6.998;2023-06-22T11:56:54;9.93;;;6.43;;
16033;SDS011;8121;51.418;6.998;2023-06-22T12:01:57;15.73;;;10.10;;
16033;SDS011;8121;51.418;6.998;2023-06-22T12:06:59;23.00;;;12.63;;
16033;SDS011;8121;51.418;6.998;2023-06-22T12:12:02;21.67;;;14.10;;
16033;SDS011;8121;51.418;6.998;2023-06-22T12:17:05;14.00;;;9.20;;
16033;SDS011;8121;51.418;6.998;2023-06-22T12:22:08;30.43;;;19.93;;
16033;SDS011;8121;51.418;6.998;2023-06-22T12:27:09;18.17;;;14.53;;
16033;SDS011;8121;51.418;6.998;2023-06-22T12:32:11;32.30;;;21.90;;
16033;SDS011;8121;51.418;6.998;2023-06-22T12:37:14;33.97;;;22.50;;
16033;SDS011;8121;51.418;6.998;2023-06-22T12:42:15;35.47;;;23.77;;
16033;SDS011;8121;51.418;6.998;2023-06-22T12:47:17;27.33;;;18.90;;
16033;SDS011;8121;51.418;6.998;2023-06-22T12:52:21;34.73;;;21.67;;
16033;SDS011;8121;51.418;6.998;2023-06-22T12:57:23;27.17;;;17.57;;
16033;SDS011;8121;51.418;6.998;2023-06-22T13:02:25;32.17;;;22.70;;
16033;SDS011;8121;51.418;6.998;2023-06-22T13:07:28;36.27;;;20.90;;
16033;SDS011;8121;51.418;6.998;2023-06-22T13:12:29;37.37;;;26.43;;
16033;SDS011;8121;51.418;6.998;2023-06-22T13:17:31;38.57;;;26.97;;
16033;SDS011;8121;51.418;6.998;2023-06-22T13:22:34;49.53;;;29.70;;
16033;SDS011;8121;51.418;6.998;2023-06-22T13:27:40;39.97;;;24.70;;
16033;SDS011;8121;51.418;6.998;2023-06-22T13:32:41;39.80;;;25.57;;
16033;SDS011;8121;51.418;6.998;2023-06-22T13:37:44;19.50;;;13.53;;
16033;SDS011;8121;51.418;6.998;2023-06-22T13:42:46;44.30;;;27.80;;
16033;SDS011;8121;51.418;6.998;2023-06-22T13:47:47;45.40;;;25.40;;
16033;SDS011;8121;51.418;6.998;2023-06-22T13:52:50;44.30;;;25.87;;
16033;SDS011;8121;51.418;6.998;2023-06-22T13:57:52;38.43;;;25.63;;
16033;SDS011;8121;51.418;6.998;2023-06-22T14:02:53;47.80;;;25.53;;
16033;SDS011;8121;51.418;6.998;2023-06-22T14:07:56;39.73;;;20.83;;
16033;SDS011;8121;51.418;6.998;2023-06-22T14:12:58;25.03;;;16.77;;
16033;SDS011;8121;51.418;6.998;2023-06-22T14:18:03;26.40;;;17.60;;
16033;SDS011;8121;51.418;6.998;2023-06-22T14:23:05;26.80;;;16.67;;
16033;SDS011;8121;51.418;6.998;2023-06-22T14:28:07;19.10;;;14.40;;
16033;SDS011;8121;51.418;6.998;2023-06-22T14:33:09;13.90;;;10.90;;
16033;SDS011;8121;51.418;6.998;2023-06-22T14:38:12;32.33;;;16.60;;
16033;SDS011;8121;51.418;6.998;2023-06-22T14:43:13;16.00;;;13.30;;
16033;SDS011;8121;51.418;6.998;2023-06-22T14:48:15;14.47;;;11.60;;
16033;SDS011;8121;51.418;6.998;2023-06-22T14:53:18;19.63;;;14.10;;
16033;SDS011;8121;51.418;6.998;2023-06-22T14:58:19;17.83;;;14.27;;
16033;SDS011;8121;51.418;6.998;2023-06-22T15:03:21;21.80;;;14.47;;
16033;SDS011;8121;51.418;6.998;2023-06-22T15:08:27;19.00;;;14.77;;
16033;SDS011;8121;51.418;6.998;2023-06-22T15:13:30;19.90;;;13.73;;
16033;SDS011;8121;51.418;6.998;2023-06-22T15:18:34;22.43;;;15.40;;
16033;SDS011;8121;51.418;6.998;2023-06-22T15:23:38;23.23;;;15.37;;
16033;SDS011;8121;51.418;6.998;2023-06-22T15:28:39;25.73;;;17.20;;
16033;SDS011;8121;51.418;6.998;2023-06-22T15:33:41;23.20;;;16.90;;
16033;SDS011;8121;51.418;6.998;2023-06-22T15:38:44;23.20;;;17.10;;
16033;SDS011;8121;51.418;6.998;2023-06-22T15:43:47;18.20;;;12.60;;
16033;SDS011;8121;51.418;6.998;2023-06-22T15:48:48;24.57;;;17.67;;
16033;SDS011;8121;51.418;6.998;2023-06-22T15:53:51;66.67;;;20.73;;
16033;SDS011;8121;51.418;6.998;2023-06-22T15:58:53;42.03;;;23.20;;
16033;SDS011;8121;51.418;6.998;2023-06-22T16:04:08;35.97;;;19.63;;
16033;SDS011;8121;51.418;6.998;2023-06-22T16:09:11;39.03;;;19.80;;
16033;SDS011;8121;51.418;6.998;2023-06-22T16:14:14;34.07;;;20.30;;
16033;SDS011;8121;51.418;6.998;2023-06-22T16:19:20;33.77;;;21.93;;
16033;SDS011;8121;51.418;6.998;2023-06-22T16:24:24;39.97;;;20.67;;
16033;SDS011;8121;51.418;6.998;2023-06-22T16:29:26;37.30;;;19.83;;
16033;SDS011;8121;51.418;6.998;2023-06-22T16:34:27;26.50;;;16.37;;
16033;SDS011;8121;51.418;6.998;2023-06-22T16:39:30;25.57;;;16.43;;
16033;SDS011;8121;51.418;6.998;2023-06-22T16:44:32;23.37;;;15.67;;
16033;SDS011;8121;51.418;6.998;2023-06-22T16:49:34;30.80;;;16.90;;
16033;SDS011;8121;51.418;6.998;2023-06-22T16:54:37;23.00;;;13.50;;
16033;SDS011;8121;51.418;6.998;2023-06-22T16:59:40;24.47;;;16.30;;
16033;SDS011;8121;51.418;6.998;2023-06-22T17:04:41;31.70;;;15.57;;
16033;SDS011;8121;51.418;6.998;2023-06-22T17:09:47;32.37;;;18.00;;
16033;SDS011;8121;51.418;6.998;2023-06-22T17:14:50;27.07;;;15.13;;
16033;SDS011;8121;51.418;6.998;2023-06-22T17:19:52;25.87;;;15.90;;
16033;SDS011;8121;51.418;6.998;2023-06-22T17:24:55;26.03;;;15.23;;
16033;SDS011;8121;51.418;6.998;2023-06-22T17:30:07;25.07;;;14.90;;
16033;SDS011;8121;51.418;6.998;2023-06-22T17:35:09;28.83;;;15.83;;
16033;SDS011;8121;51.418;6.998;2023-06-22T17:40:14;23.97;;;15.97;;
16033;SDS011;8121;51.418;6.998;2023-06-22T17:45:17;23.83;;;14.50;;
16033;SDS011;8121;51.418;6.998;2023-06-22T17:50:21;29.67;;;18.20;;
16033;SDS011;8121;51.418;6.998;2023-06-22T17:55:25;29.40;;;18.07;;
16033;SDS011;8121;51.418;6.998;2023-06-22T18:00:27;29.30;;;16.67;;
16033;SDS011;8121;51.418;6.998;2023-06-22T18:05:33;33.60;;;19.90;;
16033;SDS011;8121;51.418;6.998;2023-06-22T18:10:37;29.07;;;19.03;;
16033;SDS011;8121;51.418;6.998;2023-06-22T18:15:39;34.90;;;18.90;;
16033;SDS011;8121;51.418;6.998;2023-06-22T18:20:40;41.17;;;19.70;;
16033;SDS011;8121;51.418;6.998;2023-06-22T18:25:45;43.03;;;21.07;;
16033;SDS011;8121;51.418;6.998;2023-06-22T18:30:47;42.37;;;20.90;;
16033;SDS011;8121;51.418;6.998;2023-06-22T18:35:49;35.13;;;19.77;;
16033;SDS011;8121;51.418;6.998;2023-06-22T18:40:53;37.80;;;19.33;;
16033;SDS011;8121;51.418;6.998;2023-06-22T18:45:54;35.50;;;16.43;;
16033;SDS011;8121;51.418;6.998;2023-06-22T18:51:09;26.50;;;15.27;;
16033;SDS011;8121;51.418;6.998;2023-06-22T18:56:13;36.13;;;19.20;;
16033;SDS011;8121;51.418;6.998;2023-06-22T19:01:15;46.60;;;24.43;;
16033;SDS011;8121;51.418;6.998;2023-06-22T19:12:15;45.90;;;27.83;;
16033;SDS011;8121;51.418;6.998;2023-06-22T19:17:20;44.27;;;25.10;;
16033;SDS011;8121;51.418;6.998;2023-06-22T19:22:23;43.60;;;26.57;;
16033;SDS011;8121;51.418;6.998;2023-06-22T19:27:30;33.17;;;19.80;;
16033;SDS011;8121;51.418;6.998;2023-06-22T19:32:32;19.13;;;12.70;;
16033;SDS011;8121;51.418;6.998;2023-06-22T19:37:34;25.10;;;14.60;;
16033;SDS011;8121;51.418;6.998;2023-06-22T19:42:44;33.50;;;12.07;;
16033;SDS011;8121;51.418;6.998;2023-06-22T19:47:45;18.83;;;8.30;;
16033;SDS011;8121;51.418;6.998;2023-06-22T19:52:49;11.53;;;5.57;;
16033;SDS011;8121;51.418;6.998;2023-06-22T19:57:52;6.43;;;4.60;;
16033;SDS011;8121;51.418;6.998;2023-06-22T20:02:55;8.17;;;4.63;;
16033;SDS011;8121;51.418;6.998;2023-06-22T20:08:01;6.00;;;4.67;;
16033;SDS011;8121;51.418;6.998;2023-06-22T20:13:10;5.83;;;5.23;;
16033;SDS011;8121;51.418;6.998;2023-06-22T20:18:15;6.67;;;5.43;;
16033;SDS011;8121;51.418;6.998;2023-06-22T20:23:18;11.53;;;6.87;;
16033;SDS011;8121;51.418;6.998;2023-06-22T20:28:24;15.90;;;8.00;;
16033;SDS011;8121;51.418;6.998;2023-06-22T20:33:26;15.23;;;9.53;;
16033;SDS011;8121;51.418;6.998;2023-06-22T20:38:28;18.90;;;9.50;;
16033;SDS011;8121;51.418;6.998;2023-06-22T20:43:34;17.10;;;10.57;;
16033;SDS011;8121;51.418;6.998;2023-06-22T20:48:35;10.70;;;8.17;;
16033;SDS011;8121;51.418;6.998;2023-06-22T20:53:36;15.10;;;7.80;;
16033;SDS011;8121;51.418;6.998;2023-06-22T20:58:39;14.13;;;7.30;;
16033;SDS011;8121;51.418;6.998;2023-06-22T21:03:41;11.17;;;7.40;;
16033;SDS011;8121;51.418;6.998;2023-06-22T21:08:43;12.07;;;5.10;;
16033;SDS011;8121;51.418;6.998;2023-06-22T21:13:46;13.80;;;6.07;;
16033;SDS011;8121;51.418;6.998;2023-06-22T21:18:48;11.47;;;6.77;;
16033;SDS011;8121;51.418;6.998;2023-06-22T21:23:49;11.33;;;6.83;;
16033;SDS011;8121;51.418;6.998;2023-06-22T21:28:52;13.67;;;6.60;;
16033;SDS011;8121;51.418;6.998;2023-06-22T21:33:54;8.83;;;6.60;;
16033;SDS011;8121;51.418;6.998;2023-06-22T21:38:55;19.03;;;8.80;;
16033;SDS011;8121;51.418;6.998;2023-06-22T21:43:58;12.13;;;7.50;;
16033;SDS011;8121;51.418;6.998;2023-06-22T21:49:00;14.77;;;8.37;;
16033;SDS011;8121;51.418;6.998;2023-06-22T21:54:01;12.63;;;8.30;;
16033;SDS011;8121;51.418;6.998;2023-06-22T21:59:04;18.67;;;8.37;;
16033;SDS011;8121;51.418;6.998;2023-06-22T22:04:06;10.33;;;6.83;;
16033;SDS011;8121;51.418;6.998;2023-06-22T22:09:07;16.70;;;7.83;;
16033;SDS011;8121;51.418;6.998;2023-06-22T22:14:10;11.47;;;8.10;;
16033;SDS011;8121;51.418;6.998;2023-06-22T22:19:12;13.17;;;7.87;;
16033;SDS011;8121;51.418;6.998;2023-06-22T22:24:14;7.67;;;5.43;;
16033;SDS011;8121;51.418;6.998;2023-06-22T22:29:17;6.73;;;5.93;;
16033;SDS011;8121;51.418;6.998;2023-06-22T22:34:19;9.77;;;6.43;;
16033;SDS011;8121;51.418;6.998;2023-06-22T22:39:29;9.70;;;6.90;;
16033;SDS011;8121;51.418;6.998;2023-06-22T22:44:33;9.30;;;6.60;;
16033;SDS011;8121;51.418;6.998;2023-06-22T22:49:35;9.90;;;6.87;;
16033;SDS011;8121;51.418;6.998;2023-06-22T22:54:36;12.00;;;8.07;;
16033;SDS011;8121;51.418;6.998;2023-06-22T22:59:44;14.03;;;8.57;;
16033;SDS011;8121;51.418;6.998;2023-06-22T23:04:45;14.57;;;9.40;;
16033;SDS011;8121;51.418;6.998;2023-06-22T23:09:55;10.50;;;8.13;;
16033;SDS011;8121;51.418;6.998;2023-06-22T23:14:57;14.37;;;9.20;;
16033;SDS011;8121;51.418;6.998;2023-06-22T23:19:59;13.43;;;9.13;;
16033;SDS011;8121;51.418;6.998;2023-06-22T23:25:07;21.10;;;10.63;;
16033;SDS011;8121;51.418;6.998;2023-06-22T23:30:11;14.53;;;9.20;;
16033;SDS011;8121;51.418;6.998;2023-06-22T23:35:13;16.53;;;10.00;;
16033;SDS011;8121;51.418;6.998;2023-06-22T23:40:14;24.20;;;10.43;;
16033;SDS011;8121;51.418;6.998;2023-06-22T23:45:19;15.00;;;9.37;;
16033;SDS011;8121;51.418;6.998;2023-06-22T23:50:20;13.90;;;8.73;;
16033;SDS011;8121;51.418;6.998;2023-06-22T23:55:22;14.13;;;8.33;;
